LJLJ/LJU METAR and TAF weather

Enter ICAO airport designator
Station Type Date Time Source
LJLJ METAR 2019/08/22 21:00 UTC NOAA

LJLJ 222100Z 28003KT 9999 FEW033 SCT040 BKN120 17/16 Q1025 TEMPO SHRA


Station Type Date Time Source
LJLJ Decoded METAR 2019/08/22 21:00 UTC NOAA

Station name not available
Aug 22, 2019 - 05:00 PM EDT / 2019.08.22 2100 UTC
Wind: from the W (280 degrees) at 3 MPH (3 KT):0
Visibility: greater than 7 mile(s):0
Sky conditions: mostly cloudy
Temperature: 62 F (17 C)
Dew Point: 60 F (16 C)
Relative Humidity: 93%
Pressure (altimeter): 30.27 in. Hg (1025 hPa)
ob: LJLJ 222100Z 28003KT 9999 FEW033 SCT040 BKN120 17/16 Q1025 TEMPO SHRA
cycle: 21

Station Type Date Time Source
LJLJ TAF 2019/08/22 21:19 UTC NOAA

TAF LJLJ 222000Z 2221/2321 12005KT 9999 FEW035 BKN090
TEMPO 2221/2321 SHRA FEW030 BKN040TCU PROB30
TEMPO 2221/2321 VRB10KT 7000 TSRA BKN035CB

Example: see airport list